Terminal Aerodrome Forecast
Issued by NWS

Current Version | Previous Version | Text Only | Print | Product List | Glossary On
Versions: 1 2 3 4 5 6 7 8 9 10 11 12 13 14 15 16 17 18
000
FTUS41 KBOX 121120
TAFHYA
TAF
KHYA 121120Z 1212/1312 VRB03KT P6SM OVC040
     FM121400 14010KT P6SM VCSH OVC035
     FM121600 15013KT 6SM BR VCSH OVC025
     FM121800 15013KT 3SM -RA BR OVC015
     FM130000 21009KT P6SM SCT015 OVC025
     FM130500 26009KT P6SM SCT025 BKN060
     FM130800 26012G22KT P6SM SCT015 BKN150
     FM131000 26014G27KT P6SM BKN015=

USA.gov is the U.S. government's official web portal to all federal, state and local government web resources and services.